Spencer, IN

6:57 PM EDT on May 30, 2015 (GMT -0400)
GosportINWX | | Change Station
CLOSE
Current Station
Personal Weather Station
Location: Gosport, IN
Elevation: 751 ft
Nearby Weather Stations

Elev 751 ft 39.30 °N, 86.70 °W | Updated 15 seconds ago

Partly Cloudy
Partly Cloudy
72.1 °F
Feels Like 71 °F
N
2.7
Wind Variable Wind from NNW
Gusts 5.5 mph

Today
High -- | Low -- °F
--% Chance of Precip.
Yesterday
High -- | Low -- °F
Precip. -- in
6:23 AM 9:06 PM
Waxing Gibbous, 92% visible
Pressure 29.89 in
Visibility 10.0 miles
Clouds Few 7000 ft
Heat Index 71 °F
Dew Point 67 °F
Humidity 84%
Rainfall 0.50 in
Snow Depth Not available.
UV 2 out of 12
Pollen 1.50 out of 12
Air Quality Not available.
Flu Activity No Activity
METAR KBMG 302253Z 20004KT 10SM FEW070 24/21 A2991 RMK AO2 LTG DSNT ALQDS RAE2155B37E46 TSE10 SLP120 P0000 T02390206 $

More Conditions Fewer Conditions

Pressure 29.89 in
Visibility 10.0 miles
Clouds Few 7000 ft
Heat Index 71 °F
Dew Point 67 °F
Humidity 84%
Rainfall 0.50 in
Snow Depth Not available.
UV 2 out of 12
Pollen 1.50 out of 12
Air Quality Not available.
Flu Activity No Activity
METAR KBMG 302253Z 20004KT 10SM FEW070 24/21 A2991 RMK AO2 LTG DSNT ALQDS RAE2155B37E46 TSE10 SLP120 P0000 T02390206 $

More Conditions Fewer Conditions

10-Day Weather Forecast

Almanac

Astronomy

May. 30, 2015 Rise Set
Actual Time
Civil Twilight
Nautical Twilight
Astronomical Twilight
Moon
Length of Visible Light
Length of Day
Tomorrow will be .
, % of the Moon is Illuminated

Today's Extremes

State Highs State Lows

Community

WunderPhotos

Upload Photos

1,825,609 photos uploaded!

WunderBlogs® & News

Nearby

Air Quality

  Air Quality AQ Index Pollutant
Not available.

Snow Depth

Station Depth Elevation

Earthquake Activity

City Distance Mag. Time & Date
Minimum magnitude displayed is 2.5.

Coastal Water Temperatures

Place Temperature

Stations

Nearby Weather Stations

Station Location Temp. Windchill Dew Point Humidity Wind Precip. Elev Updated Type